createdAt,value
2022-07-30T00:04:07.324Z,362.43
2022-07-30T00:09:14.459Z,362.62
2022-07-30T00:14:21.693Z,362.38
2022-07-30T00:19:28.889Z,362.71
2022-07-30T00:24:36.054Z,362.75
2022-07-30T00:29:44.967Z,362.97
2022-07-30T00:34:50.519Z,362.47
2022-07-30T00:39:57.705Z,362.32
2022-07-30T00:45:04.908Z,362.02
2022-07-30T00:50:12.106Z,361.74
2022-07-30T00:55:19.341Z,361.52
2022-07-30T01:00:26.475Z,360.98
2022-07-30T01:05:33.708Z,361.07
2022-07-30T01:10:40.935Z,361.10
2022-07-30T01:15:48.202Z,360.89
2022-07-30T01:20:55.425Z,361.06
2022-07-30T01:26:02.607Z,360.89
2022-07-30T01:31:09.892Z,361.25
2022-07-30T01:36:17.006Z,361.36
2022-07-30T01:41:24.267Z,360.88
2022-07-30T01:46:31.440Z,361.33
2022-07-30T01:51:38.624Z,360.25
2022-07-30T01:56:45.831Z,360.22
2022-07-30T02:01:53.106Z,360.12
2022-07-30T02:07:00.589Z,360.93
2022-07-30T02:12:07.571Z,361.30
2022-07-30T02:17:18.835Z,360.71
2022-07-30T02:22:23.416Z,360.89
2022-07-30T02:27:29.239Z,361.69
2022-07-30T02:32:36.524Z,362.42
2022-07-30T02:37:44.427Z,362.49
2022-07-30T02:42:50.873Z,362.50
2022-07-30T02:47:58.063Z,361.71
2022-07-30T02:53:05.338Z,362.09
2022-07-30T02:58:12.600Z,362.30
2022-07-30T03:03:19.824Z,361.95
2022-07-30T03:08:27.126Z,361.85
2022-07-30T03:13:34.411Z,363.22
2022-07-30T03:18:41.638Z,362.43
2022-07-30T03:23:48.873Z,362.53
2022-07-30T03:28:56.062Z,362.79
2022-07-30T03:34:03.297Z,362.59
2022-07-30T03:39:10.577Z,362.02
2022-07-30T03:44:17.875Z,361.43
2022-07-30T03:49:25.184Z,361.36
2022-07-30T03:54:32.297Z,359.89
2022-07-30T03:59:39.518Z,359.43
2022-07-30T04:04:46.758Z,359.77
2022-07-30T04:09:54.022Z,358.95
2022-07-30T04:15:01.287Z,358.23
2022-07-30T04:20:08.499Z,357.75
2022-07-30T04:25:24.405Z,358.05
2022-07-30T04:30:22.991Z,358.47
2022-07-30T04:35:49.852Z,357.42
2022-07-30T04:40:37.658Z,356.97
2022-07-30T04:45:44.865Z,356.73
2022-07-30T04:50:52.032Z,357.00
2022-07-30T04:55:59.277Z,356.39
2022-07-30T05:01:06.494Z,356.36
2022-07-30T05:06:13.733Z,355.85
2022-07-30T05:11:20.974Z,355.21
2022-07-30T05:16:28.284Z,355.01
2022-07-30T05:21:35.400Z,354.10
2022-07-30T05:26:42.592Z,353.39
2022-07-30T05:31:49.822Z,353.59
2022-07-30T05:36:57.025Z,353.56
2022-07-30T05:42:04.263Z,353.65
2022-07-30T05:47:11.464Z,353.31
2022-07-30T05:52:18.707Z,353.62
2022-07-30T05:57:25.912Z,353.01
2022-07-30T06:02:33.111Z,352.14
2022-07-30T06:07:40.397Z,351.80
2022-07-30T06:12:47.578Z,351.36
2022-07-30T06:18:01.894Z,350.57
2022-07-30T06:23:02.157Z,350.37
2022-07-30T06:28:34.700Z,350.03
2022-07-30T06:33:16.515Z,349.57
2022-07-30T06:38:23.760Z,349.23
2022-07-30T06:43:30.988Z,349.38
2022-07-30T06:48:38.182Z,349.07
2022-07-30T06:53:45.454Z,349.03
2022-07-30T06:58:52.659Z,349.22
2022-07-30T07:03:59.916Z,349.13
2022-07-30T07:09:07.098Z,349.30
2022-07-30T07:14:14.311Z,348.53
2022-07-30T07:20:01.442Z,348.49
2022-07-30T07:24:28.833Z,348.73
2022-07-30T07:29:36.031Z,348.44
2022-07-30T07:34:43.212Z,348.29
2022-07-30T07:39:50.424Z,348.38
2022-07-30T07:44:57.612Z,348.18
2022-07-30T07:50:04.789Z,347.85
2022-07-30T07:55:12.189Z,347.67
2022-07-30T08:00:19.379Z,347.89
2022-07-30T08:05:56.939Z,347.93
2022-07-30T08:10:33.795Z,347.59
2022-07-30T08:15:41.042Z,347.50
2022-07-30T08:20:48.278Z,347.22
2022-07-30T08:25:55.487Z,347.45
2022-07-30T08:31:02.798Z,347.83
2022-07-30T08:36:10.300Z,348.09
2022-07-30T08:41:17.159Z,347.84
2022-07-30T08:46:24.393Z,347.64
2022-07-30T08:51:31.625Z,347.80
2022-07-30T08:56:38.795Z,348.03
2022-07-30T09:01:45.993Z,348.08
2022-07-30T09:06:53.172Z,348.59
2022-07-30T09:12:00.371Z,348.65
2022-07-30T09:17:07.536Z,348.64
2022-07-30T09:22:14.739Z,348.49
2022-07-30T09:27:21.899Z,349.18
2022-07-30T09:32:29.126Z,349.73
2022-07-30T09:37:36.269Z,350.19
2022-07-30T09:42:43.525Z,350.11
2022-07-30T09:47:50.745Z,349.85
2022-07-30T09:52:57.946Z,349.73
2022-07-30T09:58:05.160Z,349.85
2022-07-30T10:03:33.085Z,349.48
2022-07-30T10:08:19.691Z,349.76
2022-07-30T10:13:31.648Z,350.00
2022-07-30T10:18:34.492Z,350.10
2022-07-30T10:23:44.413Z,350.65
2022-07-30T10:28:48.649Z,350.85
2022-07-30T10:33:55.909Z,351.07
2022-07-30T10:39:03.127Z,351.18
2022-07-30T10:44:11.024Z,352.00
2022-07-30T10:49:18.618Z,352.15
2022-07-30T10:54:25.573Z,351.97
2022-07-30T10:59:32.911Z,351.26
2022-07-30T11:04:40.165Z,351.39
2022-07-30T11:09:49.739Z,351.12
2022-07-30T11:14:54.630Z,350.82
2022-07-30T11:20:02.148Z,351.28
2022-07-30T11:25:13.204Z,351.54
2022-07-30T11:30:16.946Z,351.79
2022-07-30T11:35:23.769Z,351.94
2022-07-30T11:40:30.750Z,352.11
2022-07-30T11:45:37.973Z,351.61
2022-07-30T11:50:45.190Z,351.28
2022-07-30T11:55:52.410Z,350.91
2022-07-30T12:00:59.591Z,351.42
2022-07-30T12:06:06.852Z,352.21
2022-07-30T12:11:14.035Z,352.66
2022-07-30T12:16:21.277Z,352.61
2022-07-30T12:21:28.532Z,353.32
2022-07-30T12:26:35.700Z,352.56
2022-07-30T12:31:42.914Z,351.85
2022-07-30T12:36:50.138Z,351.02
2022-07-30T12:41:57.368Z,350.78
2022-07-30T12:47:05.221Z,350.46
2022-07-30T12:52:18.556Z,350.32
2022-07-30T12:57:18.992Z,350.54
2022-07-30T13:02:26.202Z,350.25
2022-07-30T13:07:33.389Z,350.16
2022-07-30T13:12:40.582Z,349.76
2022-07-30T13:17:47.775Z,350.62
2022-07-30T13:22:58.885Z,350.72
2022-07-30T13:28:02.216Z,350.68
2022-07-30T13:33:09.415Z,350.91
2022-07-30T13:38:16.614Z,349.65
2022-07-30T13:43:23.888Z,348.71
2022-07-30T13:48:31.103Z,349.42
2022-07-30T13:53:38.340Z,350.31
2022-07-30T13:58:45.561Z,350.42
2022-07-30T14:03:52.917Z,350.07
2022-07-30T14:09:00.099Z,350.76
2022-07-30T14:14:07.345Z,350.99
2022-07-30T14:19:23.593Z,351.53
2022-07-30T14:24:21.779Z,352.53
2022-07-30T14:29:29.024Z,352.59
2022-07-30T14:34:36.222Z,352.83
2022-07-30T14:39:43.449Z,353.01
2022-07-30T14:44:54.208Z,352.87
2022-07-30T14:49:57.894Z,352.59
2022-07-30T14:55:06.742Z,353.29
2022-07-30T15:00:12.354Z,353.49
2022-07-30T15:05:19.633Z,354.27
2022-07-30T15:10:26.829Z,354.72
2022-07-30T15:15:38.062Z,355.40
2022-07-30T15:20:41.323Z,355.88
2022-07-30T15:25:48.591Z,356.20
2022-07-30T15:30:55.768Z,355.94
2022-07-30T15:36:02.958Z,356.18
2022-07-30T15:41:13.458Z,355.87
2022-07-30T15:46:17.342Z,354.84
2022-07-30T15:51:24.625Z,355.61
2022-07-30T15:56:31.863Z,356.05
2022-07-30T16:01:39.187Z,357.00
2022-07-30T16:06:46.329Z,357.83
2022-07-30T16:11:53.574Z,357.80
2022-07-30T16:17:00.743Z,357.92
2022-07-30T16:22:07.925Z,356.83
2022-07-30T16:27:15.116Z,356.78
2022-07-30T16:32:22.293Z,357.19
2022-07-30T16:37:29.538Z,357.49
2022-07-30T16:42:36.742Z,357.90
2022-07-30T16:47:43.906Z,358.92
2022-07-30T16:52:51.116Z,359.03
2022-07-30T16:57:58.364Z,358.37
2022-07-30T17:03:05.521Z,358.28
2022-07-30T17:08:12.786Z,358.21
2022-07-30T17:13:19.980Z,358.51
2022-07-30T17:18:27.251Z,357.50
2022-07-30T17:23:34.459Z,358.19
2022-07-30T17:28:41.733Z,357.41
2022-07-30T17:33:48.975Z,357.55
2022-07-30T17:38:56.212Z,357.60
2022-07-30T17:44:03.413Z,357.61
2022-07-30T17:49:10.746Z,356.89
2022-07-30T17:54:17.982Z,357.37
2022-07-30T17:59:25.244Z,356.97
2022-07-30T18:04:32.520Z,356.48
2022-07-30T18:09:40.158Z,356.79
2022-07-30T18:14:46.993Z,356.62
2022-07-30T18:19:54.229Z,357.01
2022-07-30T18:25:01.475Z,356.48
2022-07-30T18:30:08.746Z,356.65
2022-07-30T18:35:15.935Z,356.01
2022-07-30T18:40:24.227Z,355.60
2022-07-30T18:45:35.254Z,355.58
2022-07-30T18:50:37.587Z,355.22
2022-07-30T18:55:44.850Z,355.18
2022-07-30T19:00:52.026Z,354.90
2022-07-30T19:05:59.163Z,355.04
2022-07-30T19:11:06.339Z,354.32
2022-07-30T19:16:13.588Z,354.46
2022-07-30T19:21:20.805Z,353.64
2022-07-30T19:26:27.989Z,352.62
2022-07-30T19:31:35.270Z,352.76
2022-07-30T19:36:42.438Z,352.41
2022-07-30T19:41:50.849Z,351.92
2022-07-30T19:46:57.103Z,352.09
2022-07-30T19:52:17.686Z,351.46
2022-07-30T19:57:11.502Z,351.91
2022-07-30T20:02:18.802Z,350.70
2022-07-30T20:07:27.638Z,351.06
2022-07-30T20:12:33.280Z,351.12
2022-07-30T20:17:40.448Z,350.71
2022-07-30T20:22:47.760Z,351.01
2022-07-30T20:27:55.002Z,350.59
2022-07-30T20:33:02.214Z,350.66
2022-07-30T20:38:10.319Z,350.96
2022-07-30T20:43:16.971Z,349.84
2022-07-30T20:48:24.404Z,350.16
2022-07-30T20:53:33.619Z,349.82
2022-07-30T20:58:38.775Z,350.14
2022-07-30T21:08:53.293Z,349.43
2022-07-30T21:14:00.511Z,349.49
2022-07-30T21:19:07.774Z,349.41
2022-07-30T21:24:15.083Z,347.90
2022-07-30T21:29:22.260Z,348.54
2022-07-30T21:34:35.221Z,348.89
2022-07-30T21:39:39.804Z,348.58
2022-07-30T21:44:44.300Z,348.43
2022-07-30T21:49:51.530Z,348.18
2022-07-30T21:54:58.786Z,348.34
2022-07-30T22:00:06.018Z,348.48
2022-07-30T22:05:13.279Z,348.24
2022-07-30T22:10:21.358Z,348.14
2022-07-30T22:15:27.871Z,347.69
2022-07-30T22:20:35.092Z,347.33
2022-07-30T22:25:44.118Z,347.21
2022-07-30T22:30:49.477Z,347.18
2022-07-30T22:35:56.740Z,347.49
2022-07-30T22:41:03.929Z,347.04
2022-07-30T22:46:27.200Z,347.31
2022-07-30T22:51:18.296Z,347.50
2022-07-30T22:56:25.541Z,347.63
2022-07-30T23:01:32.699Z,347.89
2022-07-30T23:06:41.100Z,347.91
2022-07-30T23:11:47.125Z,347.51
2022-07-30T23:12:32.093Z,349.81
2022-07-30T23:16:54.305Z,347.90
2022-07-30T23:22:01.522Z,347.48
2022-07-30T23:27:08.697Z,347.23
2022-07-30T23:32:15.894Z,347.66
2022-07-30T23:37:23.081Z,348.05
2022-07-30T23:42:30.262Z,347.88
2022-07-30T23:48:01.785Z,347.77
2022-07-30T23:52:45.070Z,347.86
2022-07-30T23:57:52.270Z,347.47
